Time;durP1;ratioP1;P1;durP2;ratioP2;P2;SDS_P1;SDS_P2;PMS_P1;PMS_P2;Temp;Humidity;BMP_temperature;BMP_pressure;BME280_temperature;BME280_humidity;BME280_pressure;Samples;Min_cycle;Max_cycle;Signal;HPM_P1;HPM_P2
2022/01/02 00:00:17;;;;;;;17.33;15.83;;;;;;;8.77;82.22;93559.13;5060155;28;20198;-76
2022/01/02 00:02:48;;;;;;;18.50;17.00;;;;;;;8.85;82.42;93566.50;5054007;28;20229;-76
2022/01/02 00:05:16;;;;;;;16.83;15.53;;;;;;;8.91;81.77;93564.72;5058645;28;20216;-75
2022/01/02 00:07:45;;;;;;;19.73;18.03;;;;;;;8.94;82.05;93569.44;5067133;28;20259;-73
2022/01/02 00:10:13;;;;;;;16.83;15.47;;;;;;;8.78;82.22;93560.69;5053652;28;20193;-75
2022/01/02 00:12:48;;;;;;;16.77;15.27;;;;;;;8.81;82.87;93569.84;5070280;28;20228;-75
2022/01/02 00:15:18;;;;;;;17.17;15.73;;;;;;;8.78;83.30;93570.34;5054471;28;20196;-75
2022/01/02 00:17:45;;;;;;;17.20;15.90;;;;;;;8.81;82.54;93569.84;5054193;28;20198;-75
2022/01/02 00:20:13;;;;;;;16.87;15.57;;;;;;;8.89;82.67;93577.19;5066087;28;20186;-75
2022/01/02 00:22:41;;;;;;;19.40;17.80;;;;;;;8.83;82.87;93578.19;5068232;28;20237;-75
2022/01/02 00:25:24;;;;;;;18.33;16.87;;;;;;;8.87;82.93;93579.28;5069216;28;20201;-76
2022/01/02 00:27:52;;;;;;;19.87;17.90;;;;;;;8.83;82.79;93588.59;5067636;28;20243;-75
2022/01/02 00:30:17;;;;;;;17.30;15.90;;;;;;;8.88;82.66;93586.06;5065059;28;20197;-75
2022/01/02 00:32:43;;;;;;;17.27;15.70;;;;;;;8.86;82.78;93581.09;5060651;28;20177;-75
2022/01/02 00:35:09;;;;;;;18.07;16.57;;;;;;;8.85;82.74;93576.13;5066432;28;20208;-75
2022/01/02 00:37:34;;;;;;;17.30;15.80;;;;;;;8.91;82.10;93573.34;5055192;28;20206;-75
2022/01/02 00:40:00;;;;;;;18.43;16.93;;;;;;;8.85;81.89;93578.72;5066190;28;20189;-75
2022/01/02 00:42:31;;;;;;;17.37;16.03;;;;;;;8.77;81.92;93548.72;5062436;28;20305;-75
2022/01/02 00:45:12;;;;;;;17.07;15.67;;;;;;;8.93;81.47;93567.88;5044543;28;20213;-75
2022/01/02 00:47:44;;;;;;;18.00;16.57;;;;;;;9.02;80.73;93582.03;5036665;28;20249;-75
2022/01/02 00:50:13;;;;;;;16.33;15.13;;;;;;;9.00;80.23;93576.28;5057778;28;20212;-75
2022/01/02 00:52:45;;;;;;;16.83;15.47;;;;;;;8.96;80.42;93562.97;5068289;28;20210;-75
2022/01/02 00:55:18;;;;;;;15.27;14.03;;;;;;;9.01;80.18;93570.06;5069189;28;20195;-75
2022/01/02 00:57:55;;;;;;;17.03;15.80;;;;;;;8.97;80.12;93561.94;5068804;28;20201;-76
2022/01/02 01:00:21;;;;;;;16.37;15.27;;;;;;;9.00;79.47;93563.25;5049137;28;20199;-76
2022/01/02 01:02:48;;;;;;;16.23;15.03;;;;;;;9.08;79.09;93583.66;5068255;28;20189;-75
2022/01/02 01:05:22;;;;;;;15.70;14.80;;;;;;;9.07;79.02;93582.91;5057126;28;20202;-75
2022/01/02 01:07:51;;;;;;;15.80;14.70;;;;;;;9.02;79.08;93569.81;5068899;28;20201;-75
2022/01/02 01:10:17;;;;;;;15.20;14.00;;;;;;;9.09;78.58;93577.44;5067131;28;20197;-75
2022/01/02 01:12:44;;;;;;;16.20;15.00;;;;;;;9.00;78.60;93566.66;5068595;28;20197;-76
2022/01/02 01:15:10;;;;;;;16.57;15.43;;;;;;;9.08;78.51;93581.06;5069471;28;20185;-75
2022/01/02 01:17:37;;;;;;;16.33;14.97;;;;;;;9.01;78.74;93575.28;5067474;28;20197;-75
2022/01/02 01:20:09;;;;;;;15.17;14.17;;;;;;;9.12;78.48;93576.94;5052877;28;20249;-76
2022/01/02 01:22:35;;;;;;;15.30;14.10;;;;;;;9.09;78.16;93572.22;5053924;28;20242;-76
2022/01/02 01:25:01;;;;;;;15.43;14.13;;;;;;;8.98;78.04;93570.56;5054068;28;20198;-75
2022/01/02 01:27:27;;;;;;;14.43;13.33;;;;;;;9.06;77.83;93568.28;5060669;28;20277;-75
2022/01/02 01:29:53;;;;;;;14.77;13.70;;;;;;;9.16;77.63;93580.63;5068719;28;20191;-76
2022/01/02 01:32:18;;;;;;;16.23;14.93;;;;;;;9.13;77.52;93573.31;5067790;28;20214;-75
2022/01/02 01:34:44;;;;;;;16.00;14.80;;;;;;;9.17;77.37;93577.78;5060729;28;20186;-76
2022/01/02 01:37:09;;;;;;;15.23;14.13;;;;;;;8.99;77.20;93553.88;5063189;28;20229;-76
2022/01/02 01:39:34;;;;;;;15.80;14.43;;;;;;;9.11;77.61;93575.34;5064401;28;20190;-76
2022/01/02 01:42:08;;;;;;;14.50;13.40;;;;;;;9.10;77.31;93573.78;5052714;28;20298;-75
2022/01/02 01:47:14;;;;;;;15.37;14.13;;;;;;;9.13;76.63;93563.69;5066588;28;20232;-76
2022/01/02 01:49:39;;;;;;;15.00;13.90;;;;;;;9.01;77.07;93564.84;5058574;28;20194;-75
2022/01/02 01:52:05;;;;;;;14.30;13.33;;;;;;;8.99;76.88;93561.69;5069964;28;20226;-75
2022/01/02 01:54:30;;;;;;;14.57;13.27;;;;;;;9.04;77.30;93578.16;5055337;28;20185;-75
2022/01/02 01:56:56;;;;;;;15.67;14.57;;;;;;;9.07;77.38;93577.69;5071318;28;20263;-75
2022/01/02 01:59:22;;;;;;;15.53;14.27;;;;;;;9.03;77.03;93586.22;5065827;28;20229;-76
2022/01/02 02:01:48;;;;;;;15.30;14.37;;;;;;;9.17;76.43;93579.59;5065025;28;20237;-76
2022/01/02 02:04:15;;;;;;;13.93;13.03;;;;;;;9.15;76.47;93576.47;5065951;28;20214;-75
2022/01/02 02:06:41;;;;;;;15.47;14.37;;;;;;;9.09;77.12;93572.22;5058847;28;20224;-75
2022/01/02 02:09:07;;;;;;;14.70;13.70;;;;;;;8.85;77.41;93534.47;5072498;28;20213;-75
2022/01/02 02:11:37;;;;;;;15.47;14.37;;;;;;;9.08;77.22;93568.81;5056979;28;20236;-75
2022/01/02 02:14:06;;;;;;;14.73;13.53;;;;;;;8.94;77.49;93559.84;5055285;28;20198;-75
2022/01/02 02:16:32;;;;;;;15.87;14.23;;;;;;;9.15;77.45;93573.84;5066000;28;20232;-75
2022/01/02 02:18:58;;;;;;;15.27;14.13;;;;;;;8.98;77.32;93557.53;5062220;28;20194;-75
2022/01/02 02:21:36;;;;;;;14.93;13.83;;;;;;;8.96;78.15;93554.38;5061760;28;20722;-75
2022/01/02 02:24:04;;;;;;;14.50;13.47;;;;;;;9.06;77.46;93563.06;5066731;28;20214;-75
2022/01/02 02:26:31;;;;;;;13.93;12.93;;;;;;;9.02;77.44;93567.22;5057410;28;20244;-75
2022/01/02 02:28:57;;;;;;;15.10;14.10;;;;;;;8.97;77.62;93550.72;5072828;28;20205;-76
2022/01/02 02:31:22;;;;;;;16.03;14.93;;;;;;;9.06;77.01;93560.47;5072247;28;20225;-75
2022/01/02 02:33:47;;;;;;;15.40;14.07;;;;;;;8.96;77.40;93559.59;5047481;28;20187;-76
2022/01/02 02:36:13;;;;;;;15.17;13.97;;;;;;;9.10;76.65;93558.16;5056821;28;20288;-76
2022/01/02 02:38:40;;;;;;;14.10;13.20;;;;;;;9.09;76.59;93561.81;5070755;28;20193;-76
2022/01/02 02:41:05;;;;;;;14.47;13.37;;;;;;;9.10;76.26;93560.78;5070845;28;20324;-76
2022/01/02 02:43:47;;;;;;;13.83;12.97;;;;;;;8.92;76.26;93542.88;5067538;28;20185;-75
2022/01/02 02:49:02;;;;;;;15.13;14.07;;;;;;;9.06;76.15;93573.50;5068657;28;20235;-75
2022/01/02 02:51:38;;;;;;;14.47;13.43;;;;;;;9.18;75.64;93557.72;5055049;28;20220;-75
2022/01/02 02:54:05;;;;;;;13.80;12.73;;;;;;;9.14;75.24;93562.63;5053873;28;20196;-75
2022/01/02 02:59:09;;;;;;;14.30;13.40;;;;;;;9.09;75.51;93567.78;5071083;28;20636;-76
2022/01/02 03:01:36;;;;;;;14.60;13.60;;;;;;;9.13;75.39;93575.91;5066895;28;20226;-76
2022/01/02 03:04:01;;;;;;;14.00;12.93;;;;;;;9.00;75.30;93561.44;5062642;28;20202;-75
2022/01/02 03:06:27;;;;;;;14.93;13.73;;;;;;;9.16;75.54;93591.03;5055931;28;20229;-75
2022/01/02 03:08:53;;;;;;;15.27;14.17;;;;;;;9.01;75.54;93578.63;5037486;28;20269;-76
2022/01/02 03:11:21;;;;;;;15.10;14.00;;;;;;;8.99;75.89;93567.69;5071549;28;20316;-75
2022/01/02 03:13:52;;;;;;;14.67;13.77;;;;;;;9.05;75.85;93591.97;5065693;28;20265;-75
2022/01/02 03:16:18;;;;;;;15.20;14.00;;;;;;;8.97;76.55;93589.78;5068906;28;20237;-75
2022/01/02 03:18:43;;;;;;;14.93;13.93;;;;;;;9.03;76.65;93594.03;5057710;28;20261;-75
2022/01/02 03:21:10;;;;;;;13.70;12.83;;;;;;;9.01;76.45;93588.28;5066509;28;20233;-75
2022/01/02 03:23:36;;;;;;;14.27;13.17;;;;;;;9.04;77.21;93593.00;5070882;28;20213;-75
2022/01/02 03:26:03;;;;;;;14.37;13.40;;;;;;;9.03;77.11;93594.81;5066148;28;20234;-76
2022/01/02 03:28:28;;;;;;;14.30;13.30;;;;;;;9.02;77.08;93582.84;5061215;28;20253;-75
2022/01/02 03:30:54;;;;;;;15.23;13.93;;;;;;;8.83;77.55;93572.97;5071203;28;20221;-75
2022/01/02 03:33:19;;;;;;;14.60;13.60;;;;;;;8.90;77.67;93591.81;5068708;28;20255;-76
2022/01/02 03:35:44;;;;;;;13.63;12.57;;;;;;;8.96;77.48;93583.81;5059576;28;20230;-75
2022/01/02 03:38:10;;;;;;;15.67;14.57;;;;;;;8.93;77.74;93586.91;5064100;28;20216;-76
2022/01/02 03:40:36;;;;;;;15.13;13.93;;;;;;;8.81;78.50;93580.25;5069258;28;20241;-75
2022/01/02 03:43:02;;;;;;;15.00;13.80;;;;;;;8.82;78.26;93592.25;5067992;28;20189;-75
2022/01/02 03:45:28;;;;;;;16.67;15.37;;;;;;;8.81;79.09;93591.44;5054101;28;20202;-76
2022/01/02 03:47:53;;;;;;;16.10;14.80;;;;;;;8.72;78.84;93571.28;5071008;28;20212;-76
2022/01/02 03:50:20;;;;;;;14.33;13.20;;;;;;;8.60;79.37;93574.03;5066011;28;20292;-75
2022/01/02 03:52:45;;;;;;;14.93;13.87;;;;;;;8.70;78.78;93573.38;5050890;28;20201;-75
2022/01/02 03:55:11;;;;;;;12.83;12.00;;;;;;;8.75;78.54;93581.22;5068383;28;20196;-75
2022/01/02 03:57:37;;;;;;;14.10;13.10;;;;;;;8.72;78.69;93584.31;5068049;28;20223;-75
2022/01/02 04:00:09;;;;;;;14.17;13.17;;;;;;;8.64;78.93;93589.97;5066766;28;20202;-75
2022/01/02 04:02:37;;;;;;;14.73;13.53;;;;;;;8.57;79.70;93589.34;5053963;28;20281;-75
2022/01/02 04:05:05;;;;;;;14.03;13.03;;;;;;;8.48;78.95;93554.34;5053614;28;20209;-75
2022/01/02 04:07:30;;;;;;;14.63;13.53;;;;;;;8.65;78.94;93588.91;5068122;28;20226;-76
2022/01/02 04:09:56;;;;;;;13.77;12.77;;;;;;;8.64;78.43;93597.75;5055809;28;20209;-75
2022/01/02 04:12:22;;;;;;;14.40;13.50;;;;;;;8.72;78.21;93599.91;5063799;28;20225;-75
2022/01/02 04:14:47;;;;;;;14.30;13.30;;;;;;;8.64;78.67;93600.38;5062367;28;20225;-76
2022/01/02 04:17:13;;;;;;;14.23;13.33;;;;;;;8.63;78.59;93606.59;5053784;28;20233;-75
2022/01/02 04:19:38;;;;;;;15.80;14.60;;;;;;;8.34;78.66;93563.53;5055067;28;20197;-75
2022/01/02 04:22:03;;;;;;;14.07;13.07;;;;;;;8.61;79.19;93611.22;5052893;28;20228;-75
2022/01/02 04:24:29;;;;;;;15.00;13.97;;;;;;;8.64;78.89;93608.19;5068569;28;20224;-76
2022/01/02 04:26:54;;;;;;;15.00;13.83;;;;;;;8.64;78.25;93598.53;5052896;28;20221;-75
2022/01/02 04:29:20;;;;;;;16.20;15.00;;;;;;;8.75;78.56;93622.88;5064269;28;20398;-76
2022/01/02 04:31:45;;;;;;;14.60;13.57;;;;;;;8.57;78.87;93603.16;5068754;28;20759;-76
2022/01/02 04:34:10;;;;;;;14.10;13.00;;;;;;;8.72;78.91;93623.34;5043895;28;20225;-75
2022/01/02 04:36:36;;;;;;;15.67;14.57;;;;;;;8.74;78.85;93621.28;5056592;28;20226;-75
2022/01/02 04:39:02;;;;;;;15.10;14.07;;;;;;;8.64;78.57;93602.97;5065197;28;20647;-76
2022/01/02 04:41:27;;;;;;;14.43;13.27;;;;;;;8.76;79.17;93624.47;5068965;28;20346;-76
2022/01/02 04:43:52;;;;;;;13.90;12.80;;;;;;;8.64;79.55;93618.59;5064638;28;20219;-76
2022/01/02 04:46:18;;;;;;;15.37;14.20;;;;;;;8.69;79.47;93623.84;5060021;28;20276;-76
2022/01/02 04:48:43;;;;;;;15.30;14.10;;;;;;;8.76;78.92;93627.06;5060305;28;20223;-75
2022/01/02 04:51:09;;;;;;;14.73;13.70;;;;;;;8.78;78.63;93631.00;5055200;28;20230;-76
2022/01/02 04:53:37;;;;;;;15.00;13.90;;;;;;;8.74;79.23;93632.50;5055815;28;20189;-76
2022/01/02 04:56:03;;;;;;;15.87;14.80;;;;;;;8.78;79.22;93632.81;5052145;28;20280;-76
2022/01/02 04:58:28;;;;;;;15.50;14.40;;;;;;;8.76;79.18;93637.47;5067977;28;20201;-76
2022/01/02 05:00:54;;;;;;;15.53;14.43;;;;;;;8.45;79.10;93573.06;5038115;28;20294;-76
2022/01/02 05:03:19;;;;;;;14.73;13.50;;;;;;;8.78;78.97;93632.81;5056194;28;20205;-75
2022/01/02 05:05:44;;;;;;;16.47;15.17;;;;;;;8.66;79.87;93624.31;5061436;28;20267;-75
2022/01/02 05:08:10;;;;;;;14.27;13.27;;;;;;;8.54;79.45;93605.44;5056502;28;20248;-76
2022/01/02 05:10:35;;;;;;;15.00;13.70;;;;;;;8.59;79.62;93621.88;5066204;28;20240;-75
2022/01/02 05:13:01;;;;;;;15.03;13.97;;;;;;;8.64;79.69;93621.19;5069081;28;20190;-76
2022/01/02 05:15:26;;;;;;;17.73;16.43;;;;;;;8.60;79.92;93620.09;5067668;28;20245;-76
2022/01/02 05:17:52;;;;;;;15.17;14.03;;;;;;;8.66;79.94;93627.72;5068492;28;20213;-76
2022/01/02 05:20:17;;;;;;;14.40;13.33;;;;;;;8.76;79.59;93627.84;5069103;28;20212;-75
2022/01/02 05:22:42;;;;;;;16.20;14.97;;;;;;;8.85;79.24;93633.41;5065161;28;20218;-76
2022/01/02 05:25:08;;;;;;;15.33;14.23;;;;;;;8.67;79.57;93631.88;5068576;28;20280;-76
2022/01/02 05:27:33;;;;;;;14.90;13.87;;;;;;;8.65;80.44;93639.16;5072328;28;20224;-75
2022/01/02 05:29:59;;;;;;;17.20;16.00;;;;;;;8.69;80.14;93629.03;5072731;28;20201;-76
2022/01/02 05:32:24;;;;;;;16.73;15.40;;;;;;;8.71;80.28;93637.41;5055396;28;20257;-76
2022/01/02 05:34:50;;;;;;;15.10;14.00;;;;;;;8.59;80.07;93619.28;5067224;28;20204;-76
2022/01/02 05:37:15;;;;;;;14.80;13.70;;;;;;;8.63;79.32;93623.00;5061285;28;20242;-76
2022/01/02 05:39:41;;;;;;;14.50;13.27;;;;;;;8.54;79.08;93605.44;5063911;28;20181;-76
2022/01/02 05:42:07;;;;;;;13.23;12.33;;;;;;;8.68;78.99;93637.88;5068329;28;20226;-76
2022/01/02 05:44:32;;;;;;;15.67;14.47;;;;;;;8.82;78.32;93645.13;5060052;28;20186;-75
2022/01/02 05:46:58;;;;;;;15.00;13.90;;;;;;;8.82;77.59;93639.09;5071025;28;20209;-76
2022/01/02 05:49:24;;;;;;;14.43;13.50;;;;;;;8.72;77.89;93634.56;5067436;28;20217;-76
2022/01/02 05:51:49;;;;;;;15.33;14.17;;;;;;;8.76;77.17;93624.47;5066737;28;20255;-76
2022/01/02 05:54:15;;;;;;;14.30;13.30;;;;;;;8.77;76.84;93639.03;5066310;28;20217;-75
2022/01/02 05:56:41;;;;;;;13.60;12.57;;;;;;;8.82;77.16;93644.31;5066740;28;20226;-75
2022/01/02 05:59:06;;;;;;;14.67;13.60;;;;;;;8.72;77.51;93647.56;5058865;28;20201;-76
2022/01/02 06:01:32;;;;;;;14.67;13.70;;;;;;;8.78;77.81;93648.44;5056353;28;20244;-76
2022/01/02 06:03:57;;;;;;;13.67;12.67;;;;;;;8.75;78.34;93641.09;5072545;28;20186;-76
2022/01/02 06:06:23;;;;;;;14.87;13.87;;;;;;;8.75;78.37;93639.28;5070634;28;20229;-76
2022/01/02 06:08:48;;;;;;;13.97;12.97;;;;;;;8.77;78.15;93646.84;5058570;28;20209;-75
2022/01/02 06:11:14;;;;;;;14.20;13.20;;;;;;;8.68;79.32;93646.50;5060955;28;20229;-76
2022/01/02 06:13:40;;;;;;;14.27;13.23;;;;;;;8.67;78.55;93639.69;5044567;28;20201;-77
2022/01/02 06:16:07;;;;;;;15.00;13.90;;;;;;;8.63;78.19;93635.22;5069097;28;20226;-76
2022/01/02 06:18:32;;;;;;;14.50;13.50;;;;;;;8.72;78.45;93652.78;5072648;28;20272;-75
2022/01/02 06:20:58;;;;;;;14.63;13.43;;;;;;;8.68;78.32;93653.50;5070461;28;20229;-76
2022/01/02 06:23:23;;;;;;;16.07;15.10;;;;;;;8.73;78.14;93656.94;5070950;28;20225;-75
2022/01/02 06:25:49;;;;;;;15.57;14.47;;;;;;;8.65;78.41;93659.19;5052221;28;20229;-75
2022/01/02 06:28:14;;;;;;;14.97;13.97;;;;;;;8.65;78.22;93659.19;5059986;28;20324;-75
2022/01/02 06:30:40;;;;;;;15.87;14.40;;;;;;;8.60;78.76;93661.72;5063365;28;20252;-76
2022/01/02 06:33:05;;;;;;;15.57;14.37;;;;;;;8.59;78.55;93673.19;5066374;28;20225;-76
2022/01/02 06:35:32;;;;;;;15.57;14.40;;;;;;;8.61;77.82;93663.28;5069026;28;20229;-76
2022/01/02 06:37:58;;;;;;;15.67;14.30;;;;;;;8.66;77.65;93671.19;5055095;28;20193;-75
2022/01/02 06:40:25;;;;;;;16.13;14.90;;;;;;;8.69;78.36;93676.69;5066075;28;20197;-75
2022/01/02 06:42:51;;;;;;;14.90;13.97;;;;;;;8.65;77.84;93649.59;5067556;28;20250;-75
2022/01/02 06:45:17;;;;;;;14.87;13.77;;;;;;;8.79;77.99;93673.44;5069032;28;20193;-76
2022/01/02 06:47:43;;;;;;;15.50;14.33;;;;;;;8.92;77.64;93670.50;5062177;28;20217;-76
2022/01/02 06:50:09;;;;;;;15.43;14.23;;;;;;;8.86;77.38;93681.84;5055820;28;20209;-76
2022/01/02 06:52:35;;;;;;;15.60;14.50;;;;;;;8.81;77.92;93682.56;5055643;28;20210;-76
2022/01/02 06:55:01;;;;;;;13.23;12.33;;;;;;;8.81;77.69;93684.41;5053510;28;20188;-76
2022/01/02 06:57:26;;;;;;;14.13;13.20;;;;;;;8.82;77.49;93699.78;5054188;28;20222;-75
2022/01/02 06:59:52;;;;;;;14.03;13.13;;;;;;;8.74;77.77;93695.00;5061310;28;20197;-76
2022/01/02 07:02:17;;;;;;;14.10;13.10;;;;;;;8.66;78.15;93677.19;5068291;28;20246;-76
2022/01/02 07:04:43;;;;;;;15.00;14.03;;;;;;;8.78;77.64;93685.66;5067471;28;20213;-76
2022/01/02 07:07:09;;;;;;;14.63;13.63;;;;;;;8.76;77.98;93713.78;5064965;28;20305;-75
2022/01/02 07:09:34;;;;;;;14.10;13.13;;;;;;;8.80;77.90;93704.44;5054647;28;20210;-75
2022/01/02 07:12:00;;;;;;;12.17;11.47;;;;;;;8.89;77.58;93716.00;5071377;28;20228;-75
2022/01/02 07:14:27;;;;;;;12.47;11.67;;;;;;;8.82;77.68;93705.00;5068419;28;20253;-76
2022/01/02 07:16:56;;;;;;;13.57;12.63;;;;;;;8.81;77.33;93705.25;5061131;28;20214;-75
2022/01/02 07:19:21;;;;;;;14.27;13.37;;;;;;;8.99;76.70;93707.53;5065508;28;20185;-76
2022/01/02 07:21:48;;;;;;;13.90;13.10;;;;;;;9.10;76.79;93715.25;5069056;28;20227;-75
2022/01/02 07:24:14;;;;;;;12.43;11.43;;;;;;;8.92;76.54;93709.56;5064036;28;20242;-76
2022/01/02 07:26:39;;;;;;;14.17;13.27;;;;;;;9.01;77.08;93700.28;5061876;28;20231;-75
2022/01/02 07:29:05;;;;;;;13.67;12.63;;;;;;;9.24;75.83;93708.66;5053421;28;20244;-76
2022/01/02 07:31:30;;;;;;;13.30;12.57;;;;;;;9.32;75.09;93712.66;5070257;28;20221;-75
2022/01/02 07:33:56;;;;;;;14.17;13.27;;;;;;;9.41;74.12;93711.19;5070363;28;20186;-76
2022/01/02 07:36:21;;;;;;;13.17;12.23;;;;;;;9.46;74.02;93708.63;5060742;28;20305;-76
2022/01/02 07:38:47;;;;;;;14.17;13.17;;;;;;;9.90;72.37;93730.97;5068421;28;20194;-76
2022/01/02 07:41:14;;;;;;;13.03;12.17;;;;;;;9.74;72.93;93724.06;5066185;28;20218;-76
2022/01/02 07:43:40;;;;;;;13.93;12.97;;;;;;;9.59;73.12;93729.88;5069581;28;20196;-76
2022/01/02 07:46:05;;;;;;;14.90;13.90;;;;;;;9.49;73.76;93715.97;5061974;28;20229;-76
2022/01/02 07:48:30;;;;;;;13.13;12.33;;;;;;;9.18;74.88;93704.38;5071100;28;20247;-76
2022/01/02 07:50:56;;;;;;;13.47;12.50;;;;;;;9.16;75.20;93692.66;5069391;28;20297;-75
2022/01/02 07:53:21;;;;;;;13.47;12.60;;;;;;;9.18;76.01;93716.66;5059395;28;20197;-75
2022/01/02 07:55:47;;;;;;;14.00;13.10;;;;;;;9.24;75.60;93713.06;5062963;28;20224;-76
2022/01/02 07:58:13;;;;;;;13.77;12.87;;;;;;;9.20;75.42;93704.13;5068454;28;20189;-76
2022/01/02 08:00:38;;;;;;;13.27;12.37;;;;;;;9.09;75.61;93705.09;5069534;28;20233;-76
2022/01/02 08:03:03;;;;;;;12.93;12.13;;;;;;;9.18;75.57;93690.59;5071091;28;20198;-76
2022/01/02 08:05:29;;;;;;;17.90;16.23;;;;;;;9.51;74.96;93719.88;5055822;28;20241;-76
2022/01/02 08:07:56;;;;;;;19.50;18.00;;;;;;;9.60;75.25;93725.47;5057686;28;20200;-76
2022/01/02 08:10:22;;;;;;;15.63;14.53;;;;;;;9.40;75.95;93710.38;5059280;28;20224;-76
2022/01/02 08:12:47;;;;;;;17.17;15.90;;;;;;;9.44;75.05;93710.69;5062291;28;20186;-75
2022/01/02 08:15:13;;;;;;;15.77;14.47;;;;;;;9.53;75.23;93719.66;5064210;28;20222;-75
2022/01/02 08:17:38;;;;;;;16.10;14.90;;;;;;;9.45;76.02;93717.47;5069414;28;20190;-76
2022/01/02 08:20:04;;;;;;;15.57;14.53;;;;;;;9.25;76.10;93717.25;5067065;28;20192;-76
2022/01/02 08:22:29;;;;;;;16.10;14.90;;;;;;;9.44;75.44;93731.53;5067899;28;20225;-75
2022/01/02 08:24:55;;;;;;;15.33;14.33;;;;;;;9.49;74.48;93729.75;5054533;28;20186;-75
2022/01/02 08:27:20;;;;;;;15.47;14.37;;;;;;;9.62;74.75;93734.59;5057629;28;20233;-76
2022/01/02 08:29:46;;;;;;;15.40;14.33;;;;;;;9.54;74.40;93734.28;5053150;28;20193;-76
2022/01/02 08:32:11;;;;;;;16.17;14.70;;;;;;;9.67;74.35;93726.06;5063442;28;20245;-77
2022/01/02 08:34:37;;;;;;;16.03;14.83;;;;;;;9.64;73.96;93719.53;5062712;28;20224;-76
2022/01/02 08:37:02;;;;;;;15.43;14.30;;;;;;;9.51;73.62;93719.88;5067761;28;20720;-76
2022/01/02 08:39:28;;;;;;;17.50;16.07;;;;;;;9.65;73.53;93709.84;5063522;28;20816;-76
2022/01/02 08:41:53;;;;;;;15.80;14.80;;;;;;;9.61;72.98;93719.22;5065940;28;20255;-76
2022/01/02 08:44:19;;;;;;;14.03;13.13;;;;;;;9.52;73.22;93723.28;5066770;28;20220;-75
2022/01/02 08:46:44;;;;;;;14.57;13.77;;;;;;;9.62;72.30;93712.94;5064954;28;20224;-76
2022/01/02 08:49:10;;;;;;;14.83;13.93;;;;;;;9.42;72.94;93715.34;5067652;28;20213;-74
2022/01/02 08:51:35;;;;;;;15.00;14.10;;;;;;;9.43;73.09;93719.56;5068645;28;20240;-76
2022/01/02 08:54:03;;;;;;;13.80;12.87;;;;;;;9.49;72.82;93723.78;5070150;28;20174;-76
2022/01/02 08:56:28;;;;;;;14.33;13.43;;;;;;;9.52;72.56;93721.47;5058394;28;20318;-77
2022/01/02 08:58:54;;;;;;;14.17;13.37;;;;;;;9.42;72.43;93713.53;5067912;28;20173;-76
2022/01/02 09:01:19;;;;;;;15.00;14.10;;;;;;;9.23;72.98;93717.47;5063856;28;20245;-75
2022/01/02 09:03:45;;;;;;;14.40;13.50;;;;;;;9.16;72.98;93714.28;5066611;28;20221;-76
2022/01/02 09:06:10;;;;;;;14.43;13.50;;;;;;;8.96;72.99;93698.41;5048465;28;20258;-76
2022/01/02 09:08:36;;;;;;;13.30;12.50;;;;;;;8.90;72.64;93688.16;5069131;28;20209;-76
2022/01/02 09:11:02;;;;;;;12.97;12.17;;;;;;;9.17;72.49;93704.63;5067968;28;20243;-76
2022/01/02 09:13:27;;;;;;;14.13;13.23;;;;;;;9.18;73.43;93711.44;5051122;28;20194;-76
2022/01/02 09:15:54;;;;;;;15.90;14.80;;;;;;;9.23;73.11;93706.28;5066905;28;20231;-76
2022/01/02 09:18:19;;;;;;;13.87;12.87;;;;;;;9.24;73.53;93692.22;5059892;28;20186;-76
2022/01/02 09:20:45;;;;;;;17.10;15.73;;;;;;;9.25;72.37;93685.97;5059496;28;20255;-77
2022/01/02 09:23:11;;;;;;;14.57;13.57;;;;;;;9.50;72.61;93694.88;5048560;28;20241;-76
2022/01/02 09:25:36;;;;;;;16.93;15.67;;;;;;;9.40;72.86;93670.53;5047318;28;20281;-77
2022/01/02 09:28:02;;;;;;;14.77;13.90;;;;;;;9.59;71.89;93682.16;5046763;28;20268;-76
2022/01/02 09:30:27;;;;;;;12.73;12.03;;;;;;;9.59;70.15;93679.56;5049676;28;20190;-76
2022/01/02 09:32:54;;;;;;;14.07;13.20;;;;;;;9.78;70.17;93681.59;5043981;28;20206;-76
2022/01/02 09:35:20;;;;;;;12.77;11.87;;;;;;;9.71;69.99;93678.38;5047840;28;20246;-77
2022/01/02 09:37:46;;;;;;;12.80;12.00;;;;;;;9.75;71.29;93666.44;5045847;28;20240;-76
2022/01/02 09:40:11;;;;;;;14.10;13.20;;;;;;;9.96;69.22;93666.59;5043606;28;20191;-76
2022/01/02 09:42:37;;;;;;;13.27;12.47;;;;;;;9.95;68.77;93670.22;5040765;28;20202;-76
2022/01/02 09:45:04;;;;;;;13.57;12.53;;;;;;;9.84;69.05;93668.59;5032716;28;20187;-76
2022/01/02 09:47:30;;;;;;;13.20;12.40;;;;;;;9.88;68.03;93660.03;5043201;28;20230;-76
2022/01/02 09:49:57;;;;;;;13.33;12.43;;;;;;;9.80;69.17;93642.22;5047014;28;20190;-77
2022/01/02 09:52:22;;;;;;;14.70;13.43;;;;;;;10.00;69.22;93642.38;5046688;28;20233;-76
2022/01/02 09:54:48;;;;;;;13.20;12.40;;;;;;;9.92;68.98;93645.44;5041523;28;20909;-76
2022/01/02 09:57:13;;;;;;;13.53;12.63;;;;;;;9.93;69.39;93652.22;5034877;28;20226;-76
2022/01/02 09:59:39;;;;;;;13.40;12.63;;;;;;;9.99;68.88;93656.47;5044131;28;20224;-77
2022/01/02 10:02:05;;;;;;;13.80;12.90;;;;;;;9.90;68.35;93637.06;5036623;28;20230;-76
2022/01/02 10:04:37;;;;;;;13.67;12.77;;;;;;;9.99;68.36;93653.88;5047767;28;20188;-76
2022/01/02 10:07:05;;;;;;;12.77;12.00;;;;;;;9.84;69.04;93652.94;5050283;28;20256;-76
2022/01/02 10:09:36;;;;;;;12.50;11.77;;;;;;;9.89;69.22;93647.75;5041656;28;20220;-76
2022/01/02 10:12:31;;;;;;;12.90;12.20;;;;;;;9.92;69.73;93653.28;5042128;28;20241;-76
2022/01/02 10:15:08;;;;;;;12.60;11.77;;;;;;;10.10;68.69;93652.91;5052199;28;20258;-76
2022/01/02 10:18:06;;;;;;;13.53;12.70;;;;;;;10.09;68.83;93642.72;5042344;28;20276;-76
2022/01/02 10:20:52;;;;;;;12.80;12.10;;;;;;;10.02;68.40;93637.72;5037304;28;20234;-76
2022/01/02 10:23:22;;;;;;;12.70;12.00;;;;;;;10.09;69.10;93635.69;5047379;28;20240;-76
2022/01/02 10:25:55;;;;;;;12.57;11.97;;;;;;;10.10;68.18;93621.59;5060128;28;20235;-76
2022/01/02 10:28:20;;;;;;;13.37;12.50;;;;;;;10.19;68.43;93637.59;5069251;28;20265;-76
2022/01/02 10:30:48;;;;;;;13.47;12.77;;;;;;;10.13;68.95;93628.94;5063132;28;20237;-76
2022/01/02 10:33:14;;;;;;;11.70;11.00;;;;;;;10.09;68.70;93627.88;5066096;28;20190;-76
2022/01/02 10:35:41;;;;;;;12.63;11.93;;;;;;;10.14;68.12;93614.84;5068022;28;20233;-76
2022/01/02 10:38:13;;;;;;;12.43;11.63;;;;;;;10.24;68.22;93621.97;5068942;28;20211;-76
2022/01/02 10:40:39;;;;;;;11.70;10.90;;;;;;;10.31;68.30;93617.31;5049711;28;20229;-76
2022/01/02 10:43:09;;;;;;;13.03;12.23;;;;;;;10.29;68.32;93609.72;5069357;28;20228;-76
2022/01/02 10:45:36;;;;;;;12.60;11.90;;;;;;;10.31;67.81;93599.84;5068074;28;20254;-76
2022/01/02 10:48:03;;;;;;;12.60;11.80;;;;;;;10.37;67.98;93608.47;5072319;28;20220;-76
2022/01/02 10:50:28;;;;;;;12.80;12.10;;;;;;;10.28;67.55;93608.16;5070521;28;20189;-76
2022/01/02 10:52:54;;;;;;;13.03;12.27;;;;;;;10.01;67.90;93597.00;5072214;28;20174;-76
2022/01/02 10:55:25;;;;;;;13.13;12.27;;;;;;;9.99;68.33;93606.91;5054263;28;20225;-76
2022/01/02 10:57:54;;;;;;;13.23;12.23;;;;;;;10.10;68.70;93610.41;5070496;28;20189;-76
2022/01/02 11:00:22;;;;;;;12.10;11.37;;;;;;;10.24;67.61;93612.31;5068636;28;20189;-76
2022/01/02 11:02:48;;;;;;;12.57;11.87;;;;;;;10.41;67.47;93596.50;5068785;28;20205;-76
2022/01/02 11:05:16;;;;;;;12.80;11.90;;;;;;;10.61;66.87;93605.22;5069429;28;20186;-76
2022/01/02 11:07:49;;;;;;;12.43;11.73;;;;;;;10.55;67.70;93592.41;5050002;28;20194;-76
2022/01/02 11:10:17;;;;;;;12.80;11.67;;;;;;;10.60;66.81;93601.03;5055495;28;20201;-76
2022/01/02 11:12:44;;;;;;;11.93;11.23;;;;;;;10.48;66.95;93594.44;5064289;28;20223;-77
2022/01/02 11:15:15;;;;;;;12.13;11.33;;;;;;;10.47;66.84;93591.06;5056101;28;20194;-75
2022/01/02 11:17:41;;;;;;;11.33;10.73;;;;;;;10.44;66.38;93565.47;5066878;28;20229;-76
2022/01/02 11:20:28;;;;;;;11.63;11.07;;;;;;;10.54;67.00;93583.75;5069276;28;20280;-76
2022/01/02 11:23:20;;;;;;;11.03;10.43;;;;;;;10.44;67.83;93591.56;5066627;28;20225;-77
2022/01/02 11:26:03;;;;;;;11.27;10.67;;;;;;;10.25;67.83;93581.78;5060419;28;20234;-77
2022/01/02 11:28:53;;;;;;;12.27;11.47;;;;;;;10.13;68.35;93574.16;5054009;28;20218;-76
2022/01/02 11:31:35;;;;;;;10.83;10.23;;;;;;;10.22;67.50;93551.78;5056215;28;20233;-77